EST,Max TemperatureF,Mean TemperatureF,Min TemperatureF,Max Dew PointF,MeanDew PointF,Min DewpointF,Max Humidity, Mean Humidity, Min Humidity, Max Sea Level PressureIn, Mean Sea Level PressureIn, Min Sea Level PressureIn, Max VisibilityMiles, Mean VisibilityMiles, Min VisibilityMiles, Max Wind SpeedMPH, Mean Wind SpeedMPH, Max Gust SpeedMPH,PrecipitationIn, CloudCover, Events, WindDirDegrees
2012-12-1,68,55,42,52,45,41,93,73,43,30.42,30.36,30.33,10,9,4,7,1,,0.00,8,,118
2012-12-2,71,60,50,55,50,46,94,75,46,30.42,30.35,30.30,10,10,5,8,2,,0.00,8,,232
2012-12-3,75,60,44,54,49,43,93,72,41,30.36,30.32,30.27,10,9,1,8,2,,0.00,7,,203
2012-12-4,73,63,53,59,53,50,94,73,44,30.37,30.30,30.25,10,9,0,9,4,,0.00,4,,213
2012-12-5,71,62,53,57,54,50,94,74,60,30.26,30.20,30.15,10,10,10,13,4,17,0.00,6,,275
2012-12-6,60,56,51,55,44,36,82,62,44,30.25,30.20,30.17,10,10,5,10,6,18,0.00,8,,73
2012-12-7,60,53,46,50,46,41,94,80,63,30.19,30.11,30.03,10,9,7,9,4,,0.00,6,,59
2012-12-8,69,60,50,57,53,46,94,83,60,30.10,30.07,30.04,10,7,0,5,0,,0.00,7,,40
2012-12-9,71,63,55,61,57,54,100,84,57,30.15,30.08,30.02,10,6,0,6,1,,0.00,6,,179
2012-12-10,68,62,57,61,58,54,94,89,73,30.01,29.86,29.78,10,8,1,22,4,30,0.00,6,,215
2012-12-11,55,47,39,50,37,34,87,74,54,30.15,30.02,29.85,10,10,10,14,9,21,0.00,1,,295
2012-12-12,51,46,41,41,38,36,81,73,62,30.29,30.22,30.15,10,10,5,9,4,16,0.00,5,,54
2012-12-13,57,47,37,37,35,32,93,65,41,30.40,30.34,30.26,10,10,10,7,4,,0.00,4,,57
2012-12-14,59,46,33,36,33,30,93,68,36,30.43,30.33,30.25,10,10,3,6,2,,0.00,0,,22
2012-12-15,59,49,39,45,38,34,87,68,48,30.28,30.20,30.12,10,10,7,5,1,,0.00,4,,72
2012-12-16,59,54,50,55,50,43,100,85,71,30.13,30.03,29.95,10,7,1,12,1,,0.00,8,,58
2012-12-17,59,56,53,55,54,52,100,92,82,29.98,29.84,29.75,10,7,0,9,3,17,0.00,8,,210
2012-12-18,60,48,37,54,39,27,100,64,27,30.04,29.92,29.78,10,10,5,16,8,23,0.00,0,,274
2012-12-19,69,53,37,46,40,32,93,61,37,30.15,30.09,30.04,10,10,10,10,5,,0.00,0,,256
2012-12-20,57,50,42,55,43,30,94,80,57,30.11,29.90,29.70,10,8,0,25,4,40,0.00,5,,237
2012-12-21,48,42,35,30,22,14,70,47,33,30.11,29.99,29.88,10,10,10,26,17,40,0.00,1,,296
2012-12-22,55,44,33,19,15,10,48,32,18,30.24,30.20,30.11,10,10,10,22,12,30,0.00,0,,291
2012-12-23,60,48,37,36,30,18,61,43,29,30.22,30.14,30.10,10,10,10,14,5,17,0.00,3,,244
2012-12-24,51,48,44,50,44,32,100,84,54,30.09,29.98,29.90,10,5,0,8,2,,0.00,8,,217
2012-12-25,53,50,48,52,50,46,100,96,87,30.06,29.99,29.84,10,2,0,13,3,21,0.00,8,,86
2012-12-26,60,48,37,59,42,32,94,80,62,29.94,29.72,29.53,10,9,3,25,11,36,0.00,7,,251
2012-12-27,48,40,33,32,32,30,87,74,54,30.09,30.03,29.94,10,10,10,18,11,28,0.00,1,,291
2012-12-28,50,42,33,39,33,30,93,77,54,30.17,30.07,29.95,10,10,4,10,3,,0.00,2,,56
2012-12-29,44,40,35,41,36,27,93,84,66,30.20,29.97,29.83,10,7,2,18,8,31,0.00,8,,310
2012-12-30,50,41,32,28,25,19,87,61,30,30.43,30.36,30.20,10,10,10,16,8,24,0.00,0,,298
2012-12-31,55,44,32,34,29,23,93,61,29,30.42,30.33,30.19,10,10,10,8,1,,0.00,3,,235